Time;durP1;ratioP1;P1;durP2;ratioP2;P2;SDS_P1;SDS_P2;PMS_P1;PMS_P2;Temp;Humidity;BMP_temperature;BMP_pressure;BME280_temperature;BME280_humidity;BME280_pressure;Samples;Min_cycle;Max_cycle;Signal;HPM_P1;HPM_P2
2022/11/04 00:00:31;;;;;;;;;;;;;;;;;;4939137;29;20394;-79
2022/11/04 00:02:57;;;;;;;;;;;;;;;;;;4938441;29;19958;-80
2022/11/04 00:05:22;;;;;;;;;;;;;;;;;;4931553;28;20279;-80
2022/11/04 00:13:16;;;;;;;;;;;;;;;;;;4955045;29;20311;-80
2022/11/04 00:18:26;;;;;;;;;;;;;;;;;;4956207;29;19919;-80
2022/11/04 00:29:03;;;;;;;;;;;;;;;;;;4955367;29;19914;-80
2022/11/04 00:34:13;;;;;;;;;;;;;;;;;;4953842;29;19921;-80
2022/11/04 00:36:41;;;;;;;;;;;;;;;;;;4953794;28;19929;-80
2022/11/04 00:39:07;;;;;;;;;;;;;;;;;;4937273;28;20298;-80
2022/11/04 00:41:32;;;;;;;;;;;;;;;;;;4941728;29;20310;-81
2022/11/04 00:43:58;;;;;;;;;;;;;;;;;;4932641;29;19918;-80
2022/11/04 00:46:26;;;;;;;;;;;;;;;;;;4930992;29;19922;-81
2022/11/04 00:48:52;;;;;;;;;;;;;;;;;;4945327;29;19915;-80
2022/11/04 00:51:18;;;;;;;;;;;;;;;;;;4937716;29;20297;-79
2022/11/04 00:53:43;;;;;;;;;;;;;;;;;;4935375;29;19978;-80
2022/11/04 00:56:09;;;;;;;;;;;;;;;;;;4948489;28;20295;-81
2022/11/04 00:58:34;;;;;;;;;;;;;;;;;;4958664;29;19915;-79
2022/11/04 01:01:00;;;;;;;;;;;;;;;;;;4958567;29;20346;-80
2022/11/04 01:03:25;;;;;;;;;;;;;;;;;;4941733;29;19922;-81
2022/11/04 01:05:51;;;;;;;;;;;;;;;;;;4955725;28;20350;-80
2022/11/04 01:08:16;;;;;;;;;;;;;;;;;;4956077;29;19982;-80
2022/11/04 01:10:43;;;;;;;;;;;;;;;;;;4954338;29;19914;-81
2022/11/04 01:13:08;;;;;;;;;;;;;;;;;;4944050;29;20010;-80
2022/11/04 01:15:34;;;;;;;;;;;;;;;;;;4935409;29;19914;-80
2022/11/04 01:17:59;;;;;;;;;;;;;;;;;;4918312;29;20271;-80
2022/11/04 01:20:25;;;;;;;;;;;;;;;;;;4935257;29;19919;-79
2022/11/04 01:22:50;;;;;;;;;;;;;;;;;;4936290;29;20383;-80
2022/11/04 01:25:15;;;;;;;;;;;;;;;;;;4938299;29;19915;-80
2022/11/04 01:27:41;;;;;;;;;;;;;;;;;;4937740;29;19962;-80
2022/11/04 01:30:06;;;;;;;;;;;;;;;;;;4936807;29;20386;-80
2022/11/04 01:32:31;;;;;;;;;;;;;;;;;;4953993;29;20006;-79
2022/11/04 01:34:57;;;;;;;;;;;;;;;;;;4953720;29;19918;-80
2022/11/04 01:37:22;;;;;;;;;;;;;;;;;;4954268;28;19926;-80
2022/11/04 01:39:48;;;;;;;;;;;;;;;;;;4955478;29;20263;-80
2022/11/04 01:42:13;;;;;;;;;;;;;;;;;;4955324;28;19918;-80
2022/11/04 01:44:39;;;;;;;;;;;;;;;;;;4956230;28;19956;-80
2022/11/04 01:47:04;;;;;;;;;;;;;;;;;;4954374;28;19915;-80
2022/11/04 01:49:32;;;;;;;;;;;;;;;;;;4921367;29;20286;-80
2022/11/04 01:51:57;;;;;;;;;;;;;;;;;;4937002;29;19921;-80
2022/11/04 01:54:23;;;;;;;;;;;;;;;;;;4936801;29;19970;-80
2022/11/04 01:56:49;;;;;;;;;;;;;;;;;;4936710;29;19914;-80
2022/11/04 01:59:14;;;;;;;;;;;;;;;;;;4937737;29;20102;-80
2022/11/04 02:01:40;;;;;;;;;;;;;;;;;;4939387;29;19990;-80
2022/11/04 02:04:26;;;;;;;;;;;;;;;;;;4950109;29;20406;-80
2022/11/04 02:06:52;;;;;;;;;;;;;;;;;;4942279;29;20033;-80
2022/11/04 02:09:17;;;;;;;;;;;;;;;;;;4941594;29;20394;-80
2022/11/04 02:14:27;;;;;;;;;;;;;;;;;;4958040;29;20448;-80
2022/11/04 02:16:52;;;;;;;;;;;;;;;;;;4956830;28;19918;-80
2022/11/04 02:19:18;;;;;;;;;;;;;;;;;;4939094;29;20322;-80
2022/11/04 02:21:43;;;;;;;;;;;;;;;;;;4961072;29;19915;-80
2022/11/04 02:24:11;;;;;;;;;;;;;;;;;;4954997;29;19918;-80
2022/11/04 02:26:37;;;;;;;;;;;;;;;;;;4957334;28;19935;-80
2022/11/04 02:29:02;;;;;;;;;;;;;;;;;;4961091;29;20333;-79
2022/11/04 02:31:28;;;;;;;;;;;;;;;;;;4944075;29;20263;-80
2022/11/04 02:33:53;;;;;;;;;;;;;;;;;;4940708;29;19984;-80
2022/11/04 02:36:18;;;;;;;;;;;;;;;;;;4945300;29;20368;-80
2022/11/04 02:38:44;;;;;;;;;;;;;;;;;;4921189;29;20350;-81
2022/11/04 02:41:09;;;;;;;;;;;;;;;;;;4938112;29;19950;-81
2022/11/04 02:43:34;;;;;;;;;;;;;;;;;;4938155;29;20374;-80
2022/11/04 02:46:00;;;;;;;;;;;;;;;;;;4937536;29;19921;-80
2022/11/04 02:48:25;;;;;;;;;;;;;;;;;;4937759;29;20272;-80
2022/11/04 02:50:50;;;;;;;;;;;;;;;;;;4938250;29;19922;-79
2022/11/04 02:53:16;;;;;;;;;;;;;;;;;;4941199;29;19914;-80
2022/11/04 02:55:41;;;;;;;;;;;;;;;;;;4957092;28;19923;-79
2022/11/04 02:58:06;;;;;;;;;;;;;;;;;;4957029;29;19910;-80
2022/11/04 03:00:32;;;;;;;;;;;;;;;;;;4940099;29;19914;-80
2022/11/04 03:02:57;;;;;;;;;;;;;;;;;;4956934;28;20064;-80
2022/11/04 03:05:23;;;;;;;;;;;;;;;;;;4955563;28;19922;-80
2022/11/04 03:07:48;;;;;;;;;;;;;;;;;;4955646;29;19922;-80
2022/11/04 03:10:13;;;;;;;;;;;;;;;;;;4956857;28;19915;-80
2022/11/04 03:12:39;;;;;;;;;;;;;;;;;;4939767;29;19915;-80
2022/11/04 03:15:04;;;;;;;;;;;;;;;;;;4937662;29;19915;-80
2022/11/04 03:17:29;;;;;;;;;;;;;;;;;;4937672;29;20009;-80
2022/11/04 03:19:55;;;;;;;;;;;;;;;;;;4937866;29;19919;-80
2022/11/04 03:22:20;;;;;;;;;;;;;;;;;;4920674;29;20294;-81
2022/11/04 03:24:46;;;;;;;;;;;;;;;;;;4936515;29;19915;-80
2022/11/04 03:27:11;;;;;;;;;;;;;;;;;;4937706;29;20275;-81
2022/11/04 03:29:36;;;;;;;;;;;;;;;;;;4937402;29;19970;-80
2022/11/04 03:32:02;;;;;;;;;;;;;;;;;;4936239;29;19915;-80
2022/11/04 03:34:27;;;;;;;;;;;;;;;;;;4937297;29;20003;-80
2022/11/04 03:36:53;;;;;;;;;;;;;;;;;;4967698;23;19938;-92
2022/11/04 03:39:18;;;;;;;;;;;;;;;;;;4926275;29;20376;-92
2022/11/04 03:41:43;;;;;;;;;;;;;;;;;;4954304;29;19914;-92
2022/11/04 03:44:11;;;;;;;;;;;;;;;;;;4938678;29;19918;-91
2022/11/04 03:46:37;;;;;;;;;;;;;;;;;;4964131;28;20405;-90
2022/11/04 03:49:06;;;;;;;;;;;;;;;;;;4928769;29;20080;-90
2022/11/04 03:51:31;;;;;;;;;;;;;;;;;;4930253;29;19922;-91
2022/11/04 03:53:57;;;;;;;;;;;;;;;;;;4945538;29;19915;-90
2022/11/04 03:56:22;;;;;;;;;;;;;;;;;;4928160;29;19938;-91
2022/11/04 03:58:48;;;;;;;;;;;;;;;;;;4944069;29;20342;-90
2022/11/04 04:01:16;;;;;;;;;;;;;;;;;;4927887;29;19947;-90
2022/11/04 04:03:41;;;;;;;;;;;;;;;;;;4925284;29;20294;-91
2022/11/04 04:06:07;;;;;;;;;;;;;;;;;;4938454;29;20338;-91
2022/11/04 04:08:34;;;;;;;;;;;;;;;;;;4906036;29;19918;-89
2022/11/04 04:11:00;;;;;;;;;;;;;;;;;;4940489;29;19921;-91
2022/11/04 04:13:25;;;;;;;;;;;;;;;;;;4939085;29;19965;-90
2022/11/04 04:15:53;;;;;;;;;;;;;;;;;;4936637;29;19918;-91
2022/11/04 04:18:18;;;;;;;;;;;;;;;;;;4926806;29;19978;-90
2022/11/04 04:20:46;;;;;;;;;;;;;;;;;;4945997;29;20287;-91
2022/11/04 04:28:43;;;;;;;;;;;;;;;;;;4924983;29;19915;-91
2022/11/04 04:31:08;;;;;;;;;;;;;;;;;;4922635;29;20070;-92
2022/11/04 04:33:33;;;;;;;;;;;;;;;;;;4906511;29;19922;-91
2022/11/04 04:35:59;;;;;;;;;;;;;;;;;;4922637;29;19915;-92
2022/11/04 04:46:37;;;;;;;;;;;;;;;;;;4936453;29;19938;-90
2022/11/04 04:49:02;;;;;;;;;;;;;;;;;;4926313;28;20292;-91
2022/11/04 04:51:30;;;;;;;;;;;;;;;;;;4955800;29;20065;-91
2022/11/04 04:53:55;;;;;;;;;;;;;;;;;;4956854;28;20370;-91
2022/11/04 04:56:21;;;;;;;;;;;;;;;;;;4924579;29;19921;-91
2022/11/04 04:58:46;;;;;;;;;;;;;;;;;;4939839;29;20285;-90
2022/11/04 05:01:12;;;;;;;;;;;;;;;;;;4957078;28;19911;-90
2022/11/04 05:03:37;;;;;;;;;;;;;;;;;;4940105;29;19925;-91
2022/11/04 05:06:05;;;;;;;;;;;;;;;;;;4899687;29;19930;-91
2022/11/04 05:08:31;;;;;;;;;;;;;;;;;;4905818;29;19922;-91
2022/11/04 05:10:56;;;;;;;;;;;;;;;;;;4920648;29;19915;-91
2022/11/04 05:13:25;;;;;;;;;;;;;;;;;;4936763;29;20326;-91
2022/11/04 05:15:50;;;;;;;;;;;;;;;;;;4904731;29;19918;-91
2022/11/04 05:18:16;;;;;;;;;;;;;;;;;;4920697;29;20231;-91
2022/11/04 05:20:41;;;;;;;;;;;;;;;;;;4938805;29;19911;-91
2022/11/04 05:23:06;;;;;;;;;;;;;;;;;;4933741;29;19985;-90
2022/11/04 05:25:32;;;;;;;;;;;;;;;;;;4936060;29;19911;-91
2022/11/04 05:27:57;;;;;;;;;;;;;;;;;;4936138;29;19921;-90
2022/11/04 05:30:23;;;;;;;;;;;;;;;;;;4951984;28;20263;-90
2022/11/04 05:32:48;;;;;;;;;;;;;;;;;;4938668;29;19938;-91
2022/11/04 05:35:13;;;;;;;;;;;;;;;;;;4938128;29;19914;-91
2022/11/04 05:37:39;;;;;;;;;;;;;;;;;;4937646;29;19919;-91
2022/11/04 05:40:04;;;;;;;;;;;;;;;;;;4952776;29;19915;-91
2022/11/04 05:42:30;;;;;;;;;;;;;;;;;;4921739;29;20247;-91
2022/11/04 05:44:55;;;;;;;;;;;;;;;;;;4936187;29;19925;-90
2022/11/04 05:47:20;;;;;;;;;;;;;;;;;;4952167;28;19922;-91
2022/11/04 05:49:46;;;;;;;;;;;;;;;;;;4937502;29;19915;-89
2022/11/04 05:52:11;;;;;;;;;;;;;;;;;;4954575;29;19915;-89
2022/11/04 05:54:38;;;;;;;;;;;;;;;;;;4953863;29;19915;-91
2022/11/04 05:57:03;;;;;;;;;;;;;;;;;;4922260;29;20398;-92
2022/11/04 05:59:29;;;;;;;;;;;;;;;;;;4922494;29;19919;-90
2022/11/04 06:02:07;;;;;;;;;;;;;;;;;;4942693;29;20017;-91
2022/11/04 06:04:32;;;;;;;;;;;;;;;;;;4925166;29;19918;-90
2022/11/04 06:06:58;;;;;;;;;;;;;;;;;;4940569;29;20294;-90
2022/11/04 06:09:44;;;;;;;;;;;;;;;;;;4940656;29;19915;-91
2022/11/04 06:12:09;;;;;;;;;;;;;;;;;;4926570;29;19915;-90
2022/11/04 06:14:37;;;;;;;;;;;;;;;;;;4913519;29;19918;-90
2022/11/04 06:17:02;;;;;;;;;;;;;;;;;;4911222;29;19915;-89
2022/11/04 06:19:30;;;;;;;;;;;;;;;;;;4931092;29;19925;-90
2022/11/04 06:21:59;;;;;;;;;;;;;;;;;;4916418;29;20290;-89
2022/11/04 06:24:24;;;;;;;;;;;;;;;;;;4963368;28;19950;-90
2022/11/04 06:26:50;;;;;;;;;;;;;;;;;;4965365;28;19937;-88
2022/11/04 06:29:18;;;;;;;;;;;;;;;;;;4961282;28;19919;-90
2022/11/04 06:31:44;;;;;;;;;;;;;;;;;;4931448;29;19915;-89
2022/11/04 06:34:09;;;;;;;;;;;;;;;;;;4960630;28;19981;-88
2022/11/04 06:36:35;;;;;;;;;;;;;;;;;;4943160;29;19922;-90
2022/11/04 06:39:00;;;;;;;;;;;;;;;;;;4959434;28;20032;-90
2022/11/04 06:41:26;;;;;;;;;;;;;;;;;;4942037;29;20263;-89
2022/11/04 06:43:54;;;;;;;;;;;;;;;;;;4951449;28;19919;-90
2022/11/04 06:46:20;;;;;;;;;;;;;;;;;;4926608;29;19915;-92
2022/11/04 06:48:47;;;;;;;;;;;;;;;;;;4942699;29;19915;-90
2022/11/04 06:51:13;;;;;;;;;;;;;;;;;;4940859;29;19915;-90
2022/11/04 06:53:38;;;;;;;;;;;;;;;;;;4923694;29;19914;-91
2022/11/04 06:56:05;;;;;;;;;;;;;;;;;;4941406;29;19977;-91
2022/11/04 06:58:30;;;;;;;;;;;;;;;;;;4911175;29;19915;-90
2022/11/04 07:00:55;;;;;;;;;;;;;;;;;;4925624;29;19969;-90
2022/11/04 07:03:21;;;;;;;;;;;;;;;;;;4906294;29;20345;-91
2022/11/04 07:05:46;;;;;;;;;;;;;;;;;;4922143;29;19915;-92
2022/11/04 07:08:11;;;;;;;;;;;;;;;;;;4937515;29;19922;-91
2022/11/04 07:10:37;;;;;;;;;;;;;;;;;;4937139;29;19915;-92
2022/11/04 07:13:02;;;;;;;;;;;;;;;;;;4920579;29;20302;-91
2022/11/04 07:15:28;;;;;;;;;;;;;;;;;;4921622;29;20543;-92
2022/11/04 07:17:53;;;;;;;;;;;;;;;;;;4949752;29;20314;-92
2022/11/04 07:20:18;;;;;;;;;;;;;;;;;;4937022;29;19915;-92
2022/11/04 07:22:44;;;;;;;;;;;;;;;;;;4936473;29;19926;-91
2022/11/04 07:25:12;;;;;;;;;;;;;;;;;;4954189;29;19911;-91
2022/11/04 07:27:38;;;;;;;;;;;;;;;;;;4953511;28;20313;-92
2022/11/04 07:30:06;;;;;;;;;;;;;;;;;;4906420;29;20013;-91
2022/11/04 07:32:31;;;;;;;;;;;;;;;;;;4946149;29;19981;-92
2022/11/04 07:34:57;;;;;;;;;;;;;;;;;;4921599;29;19914;-91
2022/11/04 07:37:22;;;;;;;;;;;;;;;;;;4937714;29;19926;-91
2022/11/04 07:39:47;;;;;;;;;;;;;;;;;;4938011;29;20302;-94
2022/11/04 07:42:13;;;;;;;;;;;;;;;;;;4921976;29;20275;-91
2022/11/04 07:44:38;;;;;;;;;;;;;;;;;;4924512;29;19915;-91
2022/11/04 07:47:04;;;;;;;;;;;;;;;;;;4925033;29;19921;-94
2022/11/04 07:49:29;;;;;;;;;;;;;;;;;;4909266;29;20028;-92
2022/11/04 07:51:54;;;;;;;;;;;;;;;;;;4924707;29;20275;-93
2022/11/04 07:54:20;;;;;;;;;;;;;;;;;;4924774;29;19910;-94
2022/11/04 07:56:46;;;;;;;;;;;;;;;;;;4916705;29;19925;-94
2022/11/04 07:59:11;;;;;;;;;;;;;;;;;;4935845;29;19921;-91
2022/11/04 08:01:37;;;;;;;;;;;;;;;;;;4901856;29;19914;-94
2022/11/04 08:04:04;;;;;;;;;;;;;;;;;;4899016;29;19965;-92
2022/11/04 08:06:29;;;;;;;;;;;;;;;;;;4896836;29;20375;-94
2022/11/04 08:08:55;;;;;;;;;;;;;;;;;;4895526;29;19954;-94
2022/11/04 08:11:22;;;;;;;;;;;;;;;;;;4894128;29;19921;-94
2022/11/04 08:13:47;;;;;;;;;;;;;;;;;;4892129;29;20374;-94
2022/11/04 08:16:13;;;;;;;;;;;;;;;;;;4891464;29;20064;-93
2022/11/04 08:18:38;;;;;;;;;;;;;;;;;;4897620;29;20252;-92
2022/11/04 08:21:04;;;;;;;;;;;;;;;;;;4898999;29;19914;-94
2022/11/04 08:23:30;;;;;;;;;;;;;;;;;;4914402;29;19918;-93
2022/11/04 08:25:55;;;;;;;;;;;;;;;;;;4913278;29;19918;-93
2022/11/04 08:28:21;;;;;;;;;;;;;;;;;;4897951;29;19914;-93
2022/11/04 08:30:48;;;;;;;;;;;;;;;;;;4914241;29;19926;-94
2022/11/04 08:33:13;;;;;;;;;;;;;;;;;;4906449;29;19983;-90
2022/11/04 08:35:41;;;;;;;;;;;;;;;;;;4933080;28;19925;-93
2022/11/04 08:38:07;;;;;;;;;;;;;;;;;;4914554;29;19946;-89
2022/11/04 08:40:32;;;;;;;;;;;;;;;;;;4929904;29;19991;-86
2022/11/04 08:43:00;;;;;;;;;;;;;;;;;;4923206;29;20030;-80
2022/11/04 08:45:25;;;;;;;;;;;;;;;;;;4939089;29;19957;-78
2022/11/04 08:47:51;;;;;;;;;;;;;;;;;;4956556;28;20346;-83
2022/11/04 08:50:16;;;;;;;;;;;;;;;;;;4958604;28;19921;-87
2022/11/04 08:52:42;;;;;;;;;;;;;;;;;;4923863;29;20342;-79
2022/11/04 08:55:07;;;;;;;;;;;;;;;;;;4942104;29;19919;-82
2022/11/04 08:57:32;;;;;;;;;;;;;;;;;;4907674;29;19954;-84
2022/11/04 08:59:58;;;;;;;;;;;;;;;;;;4908796;29;19966;-83
2022/11/04 09:02:23;;;;;;;;;;;;;;;;;;4940875;29;19911;-84
2022/11/04 09:04:49;;;;;;;;;;;;;;;;;;4906268;29;19915;-82
2022/11/04 09:07:14;;;;;;;;;;;;;;;;;;4941422;29;19915;-83
2022/11/04 09:09:40;;;;;;;;;;;;;;;;;;4941171;29;19915;-84
2022/11/04 09:12:05;;;;;;;;;;;;;;;;;;4926204;29;20294;-85
2022/11/04 09:14:31;;;;;;;;;;;;;;;;;;4943483;29;19914;-88
2022/11/04 09:16:56;;;;;;;;;;;;;;;;;;4914144;29;19914;-83
2022/11/04 09:19:22;;;;;;;;;;;;;;;;;;4927808;29;19918;-84
2022/11/04 09:21:47;;;;;;;;;;;;;;;;;;4945031;29;19914;-85
2022/11/04 09:24:12;;;;;;;;;;;;;;;;;;4943560;29;19978;-90
2022/11/04 09:26:38;;;;;;;;;;;;;;;;;;4943936;29;19915;-90
2022/11/04 09:29:05;;;;;;;;;;;;;;;;;;4945575;29;20298;-88
2022/11/04 09:31:31;;;;;;;;;;;;;;;;;;4945493;29;20401;-90
2022/11/04 09:33:56;;;;;;;;;;;;;;;;;;4914527;29;19914;-90
2022/11/04 09:36:24;;;;;;;;;;;;;;;;;;4963095;23;19902;-83
2022/11/04 09:38:50;;;;;;;;;;;;;;;;;;4972357;28;20420;-84
2022/11/04 09:41:17;;;;;;;;;;;;;;;;;;4970264;28;19925;-83
2022/11/04 09:43:52;;;;;;;;;;;;;;;;;;4938901;28;19926;-84
2022/11/04 09:46:18;;;;;;;;;;;;;;;;;;4954513;28;19914;-84
2022/11/04 09:48:44;;;;;;;;;;;;;;;;;;4949640;28;20341;-84
2022/11/04 09:51:09;;;;;;;;;;;;;;;;;;4966451;28;19914;-83
2022/11/04 09:53:35;;;;;;;;;;;;;;;;;;4932007;28;19914;-86
2022/11/04 09:56:03;;;;;;;;;;;;;;;;;;4933521;28;19925;-85
2022/11/04 09:58:36;;;;;;;;;;;;;;;;;;4929540;29;19918;-85
2022/11/04 10:01:01;;;;;;;;;;;;;;;;;;4960945;29;20342;-87
2022/11/04 10:03:27;;;;;;;;;;;;;;;;;;4945038;29;19930;-85
2022/11/04 10:05:55;;;;;;;;;;;;;;;;;;4945029;29;19919;-86
2022/11/04 10:08:21;;;;;;;;;;;;;;;;;;4945755;29;19914;-85
2022/11/04 10:10:46;;;;;;;;;;;;;;;;;;4945645;29;19965;-86
2022/11/04 10:13:17;;;;;;;;;;;;;;;;;;4945023;29;19915;-86
2022/11/04 10:15:43;;;;;;;;;;;;;;;;;;4930617;29;19914;-86
2022/11/04 10:18:08;;;;;;;;;;;;;;;;;;4954015;28;20005;-84
2022/11/04 10:20:34;;;;;;;;;;;;;;;;;;4953356;28;20005;-82
2022/11/04 10:22:59;;;;;;;;;;;;;;;;;;4968124;28;19989;-84
2022/11/04 10:25:24;;;;;;;;;;;;;;;;;;4955618;28;19914;-85
2022/11/04 10:27:50;;;;;;;;;;;;;;;;;;4940276;29;20504;-82
2022/11/04 10:30:15;;;;;;;;;;;;;;;;;;4956061;29;19914;-84
2022/11/04 10:32:42;;;;;;;;;;;;;;;;;;4921893;29;20009;-84
2022/11/04 10:35:08;;;;;;;;;;;;;;;;;;4906440;29;20005;-82
2022/11/04 10:37:33;;;;;;;;;;;;;;;;;;4938821;29;19986;-84
2022/11/04 10:39:58;;;;;;;;;;;;;;;;;;4938314;29;19914;-83
2022/11/04 10:42:24;;;;;;;;;;;;;;;;;;4937575;29;19919;-82
2022/11/04 10:44:49;;;;;;;;;;;;;;;;;;4937093;29;19961;-79
2022/11/04 10:47:15;;;;;;;;;;;;;;;;;;4936349;28;19914;-79
2022/11/04 10:49:41;;;;;;;;;;;;;;;;;;4946423;29;20259;-83
2022/11/04 10:52:06;;;;;;;;;;;;;;;;;;4944040;29;19921;-87
2022/11/04 10:54:31;;;;;;;;;;;;;;;;;;4945237;28;19910;-86
2022/11/04 10:56:57;;;;;;;;;;;;;;;;;;4961226;28;19918;-85
2022/11/04 10:59:23;;;;;;;;;;;;;;;;;;4978924;28;19914;-88
2022/11/04 11:01:49;;;;;;;;;;;;;;;;;;4946719;28;19921;-88
2022/11/04 11:04:15;;;;;;;;;;;;;;;;;;4945261;28;20005;-87
2022/11/04 11:06:40;;;;;;;;;;;;;;;;;;4941637;28;20016;-87
2022/11/04 11:09:11;;;;;;;;;;;;;;;;;;4943857;28;20302;-87
2022/11/04 11:11:37;;;;;;;;;;;;;;;;;;4961024;28;20382;-85
2022/11/04 11:14:02;;;;;;;;;;;;;;;;;;4961748;28;19997;-88
2022/11/04 11:16:30;;;;;;;;;;;;;;;;;;4959695;28;20001;-87
2022/11/04 11:18:55;;;;;;;;;;;;;;;;;;4976702;28;19977;-86
2022/11/04 11:21:22;;;;;;;;;;;;;;;;;;4959948;28;19918;-83
2022/11/04 11:23:49;;;;;;;;;;;;;;;;;;4947331;28;19953;-82
2022/11/04 11:26:15;;;;;;;;;;;;;;;;;;4943961;28;19968;-81
2022/11/04 11:28:40;;;;;;;;;;;;;;;;;;4977499;28;20233;-80
2022/11/04 11:31:15;;;;;;;;;;;;;;;;;;4962909;28;19915;-84
2022/11/04 11:33:43;;;;;;;;;;;;;;;;;;4945358;28;20421;-85
2022/11/04 11:36:11;;;;;;;;;;;;;;;;;;4975990;28;19921;-84
2022/11/04 11:38:37;;;;;;;;;;;;;;;;;;4958364;28;20267;-77
2022/11/04 11:41:02;;;;;;;;;;;;;;;;;;4957834;28;20344;-78
2022/11/04 11:43:27;;;;;;;;;;;;;;;;;;4971009;28;19925;-77
2022/11/04 11:45:56;;;;;;;;;;;;;;;;;;4955475;29;19962;-76
2022/11/04 11:48:21;;;;;;;;;;;;;;;;;;4956082;28;19915;-77
2022/11/04 11:50:47;;;;;;;;;;;;;;;;;;4938039;29;19915;-76
2022/11/04 11:53:12;;;;;;;;;;;;;;;;;;4955280;29;19914;-76
2022/11/04 11:55:38;;;;;;;;;;;;;;;;;;4955334;29;19946;-76
2022/11/04 11:58:03;;;;;;;;;;;;;;;;;;4955340;28;19922;-76
2022/11/04 12:00:31;;;;;;;;;;;;;;;;;;4937772;29;19915;-76
2022/11/04 12:02:56;;;;;;;;;;;;;;;;;;4938134;29;19919;-77
2022/11/04 12:05:22;;;;;;;;;;;;;;;;;;4955063;29;20001;-76
2022/11/04 12:07:47;;;;;;;;;;;;;;;;;;4938280;29;20028;-76
2022/11/04 12:10:13;;;;;;;;;;;;;;;;;;4938014;29;19915;-76
2022/11/04 12:12:41;;;;;;;;;;;;;;;;;;4938501;29;19915;-76
2022/11/04 12:15:06;;;;;;;;;;;;;;;;;;4938223;29;19915;-76
2022/11/04 12:17:32;;;;;;;;;;;;;;;;;;4938573;29;20271;-77
2022/11/04 12:19:57;;;;;;;;;;;;;;;;;;4959540;29;19914;-77
2022/11/04 12:22:25;;;;;;;;;;;;;;;;;;4944314;29;19915;-76
2022/11/04 12:24:54;;;;;;;;;;;;;;;;;;4939265;29;20283;-76
2022/11/04 12:27:19;;;;;;;;;;;;;;;;;;4937977;29;19927;-76
2022/11/04 12:29:44;;;;;;;;;;;;;;;;;;4921779;29;19914;-77
2022/11/04 12:32:10;;;;;;;;;;;;;;;;;;4954987;29;19914;-76
2022/11/04 12:34:35;;;;;;;;;;;;;;;;;;4954524;29;19914;-76
2022/11/04 12:37:01;;;;;;;;;;;;;;;;;;4937733;29;20029;-85
2022/11/04 12:39:28;;;;;;;;;;;;;;;;;;4956745;29;19922;-85
2022/11/04 12:41:53;;;;;;;;;;;;;;;;;;4938652;29;19934;-86
2022/11/04 12:44:18;;;;;;;;;;;;;;;;;;4945432;29;20057;-86
2022/11/04 12:46:44;;;;;;;;;;;;;;;;;;4954379;28;20271;-86
2022/11/04 12:49:09;;;;;;;;;;;;;;;;;;4954918;29;19918;-85
2022/11/04 12:51:35;;;;;;;;;;;;;;;;;;4938246;29;20349;-85
2022/11/04 12:54:00;;;;;;;;;;;;;;;;;;4938545;29;19985;-86
2022/11/04 12:56:26;;;;;;;;;;;;;;;;;;4954411;28;19977;-85
2022/11/04 12:58:51;;;;;;;;;;;;;;;;;;4939008;29;20279;-86
2022/11/04 13:01:17;;;;;;;;;;;;;;;;;;4954379;29;20289;-85
2022/11/04 13:03:42;;;;;;;;;;;;;;;;;;4938248;29;19925;-86
2022/11/04 13:06:07;;;;;;;;;;;;;;;;;;4955896;28;20286;-85
2022/11/04 13:08:33;;;;;;;;;;;;;;;;;;4940370;29;19915;-85
2022/11/04 13:10:58;;;;;;;;;;;;;;;;;;4954890;28;19914;-85
2022/11/04 13:13:23;;;;;;;;;;;;;;;;;;4954244;29;19959;-86
2022/11/04 13:15:49;;;;;;;;;;;;;;;;;;4938788;29;20322;-86
2022/11/04 13:18:14;;;;;;;;;;;;;;;;;;4956291;28;19973;-85
2022/11/04 13:20:42;;;;;;;;;;;;;;;;;;4939917;29;19918;-85
2022/11/04 13:23:07;;;;;;;;;;;;;;;;;;4956909;29;19970;-86
2022/11/04 13:25:33;;;;;;;;;;;;;;;;;;4940766;29;19918;-85
2022/11/04 13:27:58;;;;;;;;;;;;;;;;;;4958497;28;19987;-85
2022/11/04 13:30:24;;;;;;;;;;;;;;;;;;4940260;29;19915;-86
2022/11/04 13:32:52;;;;;;;;;;;;;;;;;;4958158;29;19919;-85
2022/11/04 13:35:17;;;;;;;;;;;;;;;;;;4956573;29;19914;-85
2022/11/04 13:37:43;;;;;;;;;;;;;;;;;;4939314;29;19942;-83
2022/11/04 13:40:08;;;;;;;;;;;;;;;;;;4957029;29;19915;-86
2022/11/04 13:42:34;;;;;;;;;;;;;;;;;;4956602;29;19915;-84
2022/11/04 13:44:59;;;;;;;;;;;;;;;;;;4957068;28;19962;-88
2022/11/04 13:47:25;;;;;;;;;;;;;;;;;;4961647;28;19915;-87
2022/11/04 13:49:50;;;;;;;;;;;;;;;;;;4945544;28;20009;-89
2022/11/04 13:52:16;;;;;;;;;;;;;;;;;;4961821;28;19964;-88
2022/11/04 13:54:41;;;;;;;;;;;;;;;;;;4945703;28;19961;-88
2022/11/04 13:57:07;;;;;;;;;;;;;;;;;;4960088;28;19914;-87
2022/11/04 13:59:32;;;;;;;;;;;;;;;;;;4942518;28;19979;-88
2022/11/04 14:01:57;;;;;;;;;;;;;;;;;;4957585;28;20072;-87
2022/11/04 14:04:23;;;;;;;;;;;;;;;;;;4941092;28;19941;-88
2022/11/04 14:06:51;;;;;;;;;;;;;;;;;;4957626;28;20282;-87
2022/11/04 14:09:16;;;;;;;;;;;;;;;;;;4942576;28;19989;-88
2022/11/04 14:11:42;;;;;;;;;;;;;;;;;;4941951;28;20342;-88
2022/11/04 14:14:07;;;;;;;;;;;;;;;;;;4957346;28;20381;-88
2022/11/04 14:16:33;;;;;;;;;;;;;;;;;;4957703;28;20274;-88
2022/11/04 14:18:58;;;;;;;;;;;;;;;;;;4959693;28;20297;-89
2022/11/04 14:21:24;;;;;;;;;;;;;;;;;;4958071;28;19914;-88
2022/11/04 14:23:49;;;;;;;;;;;;;;;;;;4961811;28;19996;-88
2022/11/04 14:26:15;;;;;;;;;;;;;;;;;;4946388;28;19914;-88
2022/11/04 14:28:40;;;;;;;;;;;;;;;;;;4930422;28;19934;-87
2022/11/04 14:31:09;;;;;;;;;;;;;;;;;;4962465;28;20242;-87
2022/11/04 14:33:38;;;;;;;;;;;;;;;;;;4945970;28;19914;-88
2022/11/04 14:36:09;;;;;;;;;;;;;;;;;;4961858;28;19922;-88
2022/11/04 14:38:34;;;;;;;;;;;;;;;;;;4946090;28;19918;-87
2022/11/04 14:41:00;;;;;;;;;;;;;;;;;;4945577;28;19933;-89
2022/11/04 14:43:25;;;;;;;;;;;;;;;;;;4930793;28;19918;-86
2022/11/04 14:45:51;;;;;;;;;;;;;;;;;;4960159;28;19921;-85
2022/11/04 14:48:17;;;;;;;;;;;;;;;;;;4944850;28;20000;-88
2022/11/04 14:50:42;;;;;;;;;;;;;;;;;;4929670;28;19914;-86
2022/11/04 14:53:09;;;;;;;;;;;;;;;;;;4946588;28;19984;-87
2022/11/04 14:55:34;;;;;;;;;;;;;;;;;;4978397;28;19914;-87
2022/11/04 14:58:00;;;;;;;;;;;;;;;;;;4961246;28;20018;-87
2022/11/04 15:00:25;;;;;;;;;;;;;;;;;;4961898;28;19914;-87
2022/11/04 15:02:50;;;;;;;;;;;;;;;;;;4960084;28;19945;-87
2022/11/04 15:05:19;;;;;;;;;;;;;;;;;;4945707;28;20381;-87
2022/11/04 15:07:44;;;;;;;;;;;;;;;;;;4946427;28;19992;-87
2022/11/04 15:10:09;;;;;;;;;;;;;;;;;;4978088;28;20301;-87
2022/11/04 15:12:50;;;;;;;;;;;;;;;;;;4944520;28;20349;-87
2022/11/04 15:15:16;;;;;;;;;;;;;;;;;;4944914;28;19914;-88
2022/11/04 15:17:41;;;;;;;;;;;;;;;;;;4977794;28;19921;-87
2022/11/04 15:20:07;;;;;;;;;;;;;;;;;;4945438;28;20294;-87
2022/11/04 15:22:32;;;;;;;;;;;;;;;;;;4946601;28;19914;-87
2022/11/04 15:24:58;;;;;;;;;;;;;;;;;;4946165;28;19972;-87
2022/11/04 15:27:25;;;;;;;;;;;;;;;;;;4929961;28;19961;-87
2022/11/04 15:29:51;;;;;;;;;;;;;;;;;;4978529;28;19914;-87
2022/11/04 15:32:16;;;;;;;;;;;;;;;;;;4962202;28;20022;-86
2022/11/04 15:34:41;;;;;;;;;;;;;;;;;;4978398;28;20270;-87
2022/11/04 15:37:07;;;;;;;;;;;;;;;;;;4928972;28;20275;-86
2022/11/04 15:39:35;;;;;;;;;;;;;;;;;;4961271;28;19922;-87
2022/11/04 15:44:45;;;;;;;;;;;;;;;;;;4947539;29;19918;-87
2022/11/04 15:47:11;;;;;;;;;;;;;;;;;;4926243;29;19921;-87
2022/11/04 15:49:36;;;;;;;;;;;;;;;;;;4925660;29;20378;-87
2022/11/04 15:52:02;;;;;;;;;;;;;;;;;;4910103;29;20298;-87
2022/11/04 15:54:31;;;;;;;;;;;;;;;;;;4940269;29;20320;-87
2022/11/04 15:56:59;;;;;;;;;;;;;;;;;;4909010;29;19922;-87
2022/11/04 15:59:25;;;;;;;;;;;;;;;;;;4924640;29;19965;-86
2022/11/04 16:01:53;;;;;;;;;;;;;;;;;;4940324;29;19918;-87
2022/11/04 16:04:18;;;;;;;;;;;;;;;;;;4957938;29;20018;-87
2022/11/04 16:06:46;;;;;;;;;;;;;;;;;;4941041;29;19914;-87
2022/11/04 16:09:12;;;;;;;;;;;;;;;;;;4940032;29;19915;-87
2022/11/04 16:11:37;;;;;;;;;;;;;;;;;;4956760;29;20013;-86
2022/11/04 16:14:02;;;;;;;;;;;;;;;;;;4958064;29;19914;-87
2022/11/04 16:16:28;;;;;;;;;;;;;;;;;;4941501;29;19914;-86
2022/11/04 16:18:56;;;;;;;;;;;;;;;;;;4925347;29;19914;-87
2022/11/04 16:21:21;;;;;;;;;;;;;;;;;;4925215;29;19930;-86
2022/11/04 16:23:47;;;;;;;;;;;;;;;;;;4923971;29;20437;-87
2022/11/04 16:26:12;;;;;;;;;;;;;;;;;;4940873;28;20095;-85
2022/11/04 16:28:38;;;;;;;;;;;;;;;;;;4909311;29;19921;-87
2022/11/04 16:31:03;;;;;;;;;;;;;;;;;;4924628;29;19915;-87
2022/11/04 16:33:29;;;;;;;;;;;;;;;;;;4957001;29;19921;-87
2022/11/04 16:35:54;;;;;;;;;;;;;;;;;;4931638;29;19915;-86
2022/11/04 16:38:20;;;;;;;;;;;;;;;;;;4965805;28;20297;-88
2022/11/04 16:40:45;;;;;;;;;;;;;;;;;;4928242;29;20323;-87
2022/11/04 16:43:11;;;;;;;;;;;;;;;;;;4955787;28;19978;-87
2022/11/04 16:45:36;;;;;;;;;;;;;;;;;;4924425;29;20362;-87
2022/11/04 16:48:02;;;;;;;;;;;;;;;;;;4955715;28;20069;-87
2022/11/04 16:50:28;;;;;;;;;;;;;;;;;;4923743;29;20282;-86
2022/11/04 16:52:53;;;;;;;;;;;;;;;;;;4937967;29;20016;-87
2022/11/04 16:55:19;;;;;;;;;;;;;;;;;;4938533;29;19922;-86
2022/11/04 16:57:44;;;;;;;;;;;;;;;;;;4938378;29;19914;-87
2022/11/04 17:00:10;;;;;;;;;;;;;;;;;;4955208;29;19957;-88
2022/11/04 17:02:39;;;;;;;;;;;;;;;;;;4906169;29;19941;-85
2022/11/04 17:05:05;;;;;;;;;;;;;;;;;;4905750;29;20378;-85
2022/11/04 17:07:30;;;;;;;;;;;;;;;;;;4905660;29;19914;-86
2022/11/04 17:09:56;;;;;;;;;;;;;;;;;;4937508;29;19920;-84
2022/11/04 17:12:21;;;;;;;;;;;;;;;;;;4905312;29;19968;-85
2022/11/04 17:14:46;;;;;;;;;;;;;;;;;;4905820;29;20267;-85